METAR Data
IDs: Format: Raw Decoded Include TAF

Data at: 0437 UTC 26 Sep 2018

K24J 260435Z AUTO 00000KT 10SM OVC055 26/23 A3012 RMK A01
K24J 260415Z AUTO 12004KT 10SM BKN060 26/23 A3012 RMK A01
K24J 260355Z AUTO 00000KT 10SM BKN060 26/23 A3012 RMK A01
K24J 260335Z AUTO 10004KT 10SM CLR 26/24 A3012 RMK A01
K24J 260315Z AUTO 11003KT 10SM CLR 26/24 A3011 RMK A01
K24J 260255Z AUTO 00000KT 10SM CLR 27/24 A3011 RMK A01
K24J 260235Z AUTO VRB03KT 10SM CLR 27/24 A3010 RMK A01
K24J 260215Z AUTO 00000KT 10SM FEW055 27/24 A3010 RMK A01
K24J 260155Z AUTO 00000KT 10SM BKN055 27/24 A3010 RMK A01
K24J 260135Z AUTO 00000KT 10SM BKN055 27/24 A3009 RMK A01
K24J 260115Z AUTO 00000KT 10SM SCT055 27/24 A3008 RMK A01
K24J 260055Z AUTO 00000KT 10SM SCT055 27/24 A3008 RMK A01
K24J 260035Z AUTO 00000KT 10SM FEW055 27/24 A3007 RMK A01
K24J 260015Z AUTO 00000KT 10SM FEW055 28/24 A3007 RMK A01
K24J 252355Z AUTO 00000KT 10SM CLR 28/24 A3006 RMK A01
K24J 252335Z AUTO 00000KT 10SM CLR 28/23 A3006 RMK A01
K24J 252315Z AUTO 00000KT 10SM CLR 29/23 A3005 RMK A01
K24J 252255Z AUTO 00000KT 10SM FEW055 30/23 A3005 RMK A01
K24J 252235Z AUTO 10005G11KT 10SM SCT047 BKN055 31/23 A3004 RMK A01
K24J 252215Z AUTO 00000KT 10SM FEW048 33/22 A3004 RMK A01
K24J 252155Z AUTO 00000KT 10SM FEW048 33/22 A3004 RMK A01
K24J 252135Z AUTO 00000KT 10SM CLR 33/22 A3003 RMK A01
K24J 252115Z AUTO 00000KT 10SM FEW046 33/22 A3004 RMK A01
K24J 252055Z AUTO 00000KT 10SM FEW046 33/22 A3004 RMK A01
K24J 252035Z AUTO 00000KT 1 1/4SM HZ SCT047 33/22 A3004 RMK A01 VIS 1V5
K24J 252015Z AUTO VRB03KT 1 1/4SM HZ BKN046 BKN050 33/22 A3005 RMK A01
K24J 251955Z AUTO 00000KT 10SM BKN046 BKN055 BKN080 33/22 A3005 RMK A01
K24J 251935Z AUTO 00000KT 1 1/2SM HZ BKN044 OVC055 31/22 A3006 RMK A01
K24J 251915Z AUTO 00000KT 10SM SCT045 SCT055 BKN065 33/22 A3007 RMK A01
K24J 251855Z AUTO 10003KT 10SM SCT045 BKN055 BKN065 32/22 A3008 RMK A01
K24J 251835Z AUTO 00000KT 10SM SCT044 SCT055 32/21 A3008 RMK A01
K24J 251815Z AUTO 00000KT 10SM SCT046 BKN055 32/23 A3009 RMK A01
K24J 251755Z AUTO 00000KT 10SM CLR 32/23 A3010 RMK A01
K24J 251735Z AUTO 00000KT 2SM HZ FEW048 FEW055 32/23 A3011 RMK A01 VIS 1 1/4V5
K24J 251715Z AUTO VRB05KT 1 1/2SM HZ SCT036 SCT043 BKN055 31/22 A3012 RMK A01
K24J 251655Z AUTO 00000KT 10SM SCT036 SCT050 31/23 A3012 RMK A01
K24J 251635Z AUTO VRB05KT 10SM FEW031 FEW038 FEW050 31/23 A3013 RMK A01
K24J 251615Z AUTO 14005KT 10SM SCT031 SCT038 BKN050 30/22 A3014 RMK A01
K24J 251555Z AUTO VRB04KT 10SM FEW025 SCT032 SCT043 30/23 A3014 RMK A01
K24J 251535Z AUTO 04004KT 10SM FEW026 FEW034 FEW043 30/24 A3014 RMK A01
K24J 251515Z AUTO 00000KT 10SM FEW019 FEW026 FEW039 29/24 A3014 RMK A01
K24J 251455Z AUTO VRB04KT 10SM BKN018 BKN025 BKN049 29/25 A3014 RMK A01 LTG DSNT NE AND SW
K24J 251435Z AUTO 08004KT 10SM BKN016 BKN024 28/25 A3014 RMK A01
K24J 251415Z AUTO 00000KT 10SM FEW014 28/25 A3014 RMK A01
K24J 251355Z AUTO 00000KT 10SM CLR 27/26 A3014 RMK A01
K24J 251335Z AUTO 00000KT 10SM CLR 26/26 A3013 RMK A01
K24J 251315Z AUTO 00000KT 9SM CLR 25/25 A3013 RMK A01
K24J 251255Z AUTO 00000KT 10SM FEW003 24/24 A3012 RMK A01
K24J 251235Z AUTO 00000KT 7SM BKN003 24/24 A3012 RMK A01
K24J 251215Z AUTO 00000KT 4SM BR BKN002 23/23 A3012 RMK A01
K24J 251155Z AUTO 00000KT 1 1/2SM BR BKN002 23/23 A3011 RMK A01
K24J 251135Z AUTO 00000KT 1 3/4SM BR BKN002 BKN030 23/23 A3010 RMK A01
K24J 251115Z AUTO 00000KT 1/2SM FG OVC002 23/23 A3010 RMK A01
K24J 251055Z AUTO 00000KT 1 1/2SM BR OVC003 23/23 A3009 RMK A01
K24J 251035Z AUTO 00000KT 3SM BR BKN003 BKN024 BKN030 23/23 A3009 RMK A01
K24J 251015Z AUTO 00000KT 2 1/2SM BR SCT019 BKN028 23/23 A3008 RMK A01
K24J 250955Z AUTO 00000KT 6SM BR BKN019 OVC027 23/23 A3008 RMK A01 LTG DSNT W
K24J 250935Z AUTO 00000KT 4SM BR BKN019 OVC025 23/23 A3008 RMK A01
K24J 250915Z AUTO 00000KT 3SM BR BKN019 OVC027 23/23 A3008 RMK A01 LTG DSNT W
K24J 250855Z AUTO 00000KT 6SM BR SCT020 BKN027 BKN036 23/23 A3008 RMK A01
K24J 250835Z AUTO 00000KT 4SM BR SCT019 SCT025 BKN030 23/23 A3008 RMK A01
K24J 250815Z AUTO 00000KT 6SM BR BKN020 BKN029 BKN036 23/23 A3007 RMK A01
K24J 250735Z AUTO 00000KT 8SM SCT018 BKN023 23/23 A3008 RMK A01
K24J 250715Z AUTO 00000KT 10SM SCT018 SCT022 SCT027 23/23 A3008 RMK A01
K24J 250655Z AUTO 00000KT 10SM FEW024 FEW030 FEW037 23/23 A3008 RMK A01
K24J 250635Z AUTO 00000KT 10SM FEW023 SCT030 BKN037 23/23 A3009 RMK A01
K24J 250615Z AUTO 00000KT 10SM FEW024 SCT030 BKN037 23/23 A3008 RMK A01
K24J 250555Z AUTO 00000KT 10SM FEW021 SCT026 BKN030 24/24 A3009 RMK A01
K24J 250515Z AUTO 00000KT 10SM FEW023 FEW041 FEW060 24/24 A3009 RMK A01
K24J 250455Z AUTO 00000KT 10SM FEW060 24/24 A3010 RMK A01
K24J 250435Z AUTO 00000KT 10SM FEW055 24/24 A3010 RMK A01
K24J 250415Z AUTO 00000KT 10SM SCT050 24/24 A3010 RMK A01
K24J 250355Z AUTO 00000KT 10SM SCT048 SCT055 25/25 A3010 RMK A01
K24J 250335Z AUTO VRB03KT 10SM BKN046 25/25 A3009 RMK A01
K24J 250315Z AUTO 07003KT 10SM BKN046 BKN055 25/25 A3008 RMK A01
K24J 250255Z AUTO 00000KT 10SM FEW045 FEW055 25/25 A3009 RMK A01
K24J 250235Z AUTO 07003KT 10SM SCT049 SCT060 25/25 A3008 RMK A01
K24J 250215Z AUTO 00000KT 10SM BKN049 OVC055 25/25 A3008 RMK A01
K24J 250155Z AUTO 00000KT 10SM FEW024 SCT047 BKN055 25/25 A3008 RMK A01
K24J 250135Z AUTO 00000KT 10SM SCT055 OVC095 25/25 A3008 RMK A01
K24J 250115Z AUTO 00000KT 10SM OVC055 25/26 A3007 RMK A01
K24J 250055Z AUTO 00000KT 10SM OVC050 25/25 A3006 RMK A01
K24J 250035Z AUTO 00000KT 10SM OVC050 25/25 A3005 RMK A01
K24J 250015Z AUTO 00000KT 10SM BKN050 OVC055 25/25 A3004 RMK A01
K24J 242355Z AUTO 00000KT 10SM OVC055 26/26 A3004 RMK A01
K24J 242335Z AUTO 00000KT 10SM OVC055 26/26 A3004 RMK A01
K24J 242315Z AUTO 00000KT 10SM BKN055 BKN075 26/26 A3004 RMK A01
K24J 242255Z AUTO 00000KT 10SM FEW070 26/26 A3004 RMK A01
K24J 242235Z AUTO 00000KT 10SM FEW070 26/26 A3003 RMK A01 LTG DSNT S AND SW
K24J 242215Z AUTO 00000KT 10SM FEW070 26/26 A3003 RMK A01 LTG DSNT S
K24J 242155Z AUTO 00000KT 10SM CLR 25/25 A3002 RMK A01 LTG DSNT E AND W
K24J 242135Z AUTO 00000KT 10SM CLR 25/25 A3003 RMK A01 LTG DSNT E AND W AND NW
K24J 242115Z AUTO 00000KT 10SM VCTS CLR 25/25 A3001 RMK A01 LTG DSNT E AND NW
K24J 242055Z AUTO 00000KT 9SM FEW004 SCT036 BKN065 24/24 A3003 RMK A01 LTG DSNT ALQDS P0043
K24J 242035Z AUTO 04006G14KT 1SM TS BKN004 BKN028 OVC037 24/24 A3003 RMK A01
K24J 242015Z AUTO 05013G25KT 1 3/4SM TS SCT023 BKN033 OVC050 26/25 A3003 RMK A01 LTG DSNT ALQDS
K24J 241955Z AUTO VRB06KT 10SM VCTS FEW048 SCT065 BKN090 33/22 A3000 RMK A01 LTG DSNT NE AND E
K24J 241935Z AUTO VRB03KT 10SM VCTS FEW048 FEW090 33/22 A3000 RMK A01 LTG DSNT NE AND E
K24J 241915Z AUTO 00000KT 10SM VCTS SCT049 SCT060 SCT070 33/22 A3000 RMK A01 LTG DSNT NE AND E AND SW
K24J 241855Z AUTO VRB03KT 10SM BKN049 32/22 A3002 RMK A01 LTG DSNT NE AND E P0003
K24J 241835Z AUTO VRB05KT 10SM FEW050 FEW060 33/22 A3003 RMK A01 LTG DSNT NE AND SE
K24J 241815Z AUTO 00000KT CLR 33/22 A3004 RMK A01 LTG DSNT NE AND E
K24J 241755Z AUTO VRB03KT 10SM CLR 33/22 A3005 RMK A01 LTG DSNT E AND SW
K24J 241735Z AUTO 09005KT 10SM FEW041 32/21 A3006 RMK A01
K24J 241715Z AUTO VRB05KT 10SM SCT040 SCT050 32/22 A3007 RMK A01
K24J 241655Z AUTO 00000KT 10SM BKN039 BKN049 32/23 A3007 RMK A01